Time;durP1;ratioP1;P1;durP2;ratioP2;P2;SDS_P1;SDS_P2;PMS_P1;PMS_P2;Temp;Humidity;BMP_temperature;BMP_pressure;BME280_temperature;BME280_humidity;BME280_pressure;Samples;Min_cycle;Max_cycle;Signal;HPM_P1;HPM_P2
2021/07/01 00:03:25;;;;;;;5.10;2.80;;;16.70;96.60;;;;;;4803569;29;20069;-85
2021/07/01 00:05:51;;;;;;;4.53;2.60;;;16.60;96.40;;;;;;4829534;29;20046;-85
2021/07/01 00:08:17;;;;;;;4.95;2.88;;;16.70;96.50;;;;;;4834048;29;20033;-85
2021/07/01 00:10:43;;;;;;;5.35;2.60;;;16.70;96.50;;;;;;4862061;29;20409;-85
2021/07/01 00:13:08;;;;;;;4.15;2.42;;;16.80;96.70;;;;;;4878003;29;20069;-85
2021/07/01 00:15:35;;;;;;;4.38;2.53;;;16.70;96.60;;;;;;4877760;29;20068;-85
2021/07/01 00:18:01;;;;;;;7.70;3.58;;;16.70;96.60;;;;;;4877278;29;20112;-85
2021/07/01 00:20:27;;;;;;;7.38;3.40;;;16.70;96.50;;;;;;4877787;29;20125;-85
2021/07/01 00:22:54;;;;;;;6.30;3.05;;;16.70;96.40;;;;;;4890757;29;20127;-85
2021/07/01 00:25:23;;;;;;;8.65;4.00;;;16.70;96.40;;;;;;4898402;29;20496;-85
2021/07/01 00:27:50;;;;;;;8.65;3.45;;;16.60;96.30;;;;;;4898549;29;20452;-85
2021/07/01 00:30:17;;;;;;;9.43;3.53;;;16.60;96.30;;;;;;4896982;29;20044;-85
2021/07/01 00:32:51;;;;;;;6.70;3.28;;;16.60;96.30;;;;;;4898196;29;20792;-84
2021/07/01 00:35:20;;;;;;;7.68;3.38;;;16.60;96.50;;;;;;4898094;29;20025;-84
2021/07/01 00:37:50;;;;;;;5.68;3.00;;;16.50;96.40;;;;;;4897180;29;20032;-84
2021/07/01 00:40:34;;;;;;;5.22;2.60;;;16.50;96.30;;;;;;4896767;29;20056;-85
2021/07/01 00:43:09;;;;;;;;;;;;;;;;;;;;;
2021/07/01 00:45:52;;;;;;;5.75;2.75;;;16.50;96.40;;;;;;4897956;29;20021;-85
2021/07/01 02:03:04;;;;;;;14.18;6.70;;;16.10;96.40;;;;;;3147354;23;20056;-85
2021/07/01 02:06:39;;;;;;;11.00;5.00;;;16.00;96.40;;;;;;4902280;29;20496;-84
2021/07/01 02:10:00;;;;;;;;;;;;;;;;;;;;;
2021/07/01 02:23:32;;;;;;;12.20;5.65;;;16.00;96.40;;;;;;4897517;29;20025;-85
2021/07/01 02:27:15;;;;;;;;;;;;;;;;;;;;;
2021/07/01 02:33:36;;;;;;;12.77;5.70;;;15.90;96.50;;;;;;4867065;29;20405;-84
2021/07/01 04:33:38;;;;;;;9.68;3.17;;;14.50;96.40;;;;;;4781502;30;20396;-85
2021/07/01 04:36:04;;;;;;;21.35;10.93;;;14.50;96.40;;;;;;4781027;29;20039;-83
2021/07/01 04:38:29;;;;;;;9.93;2.97;;;14.40;96.40;;;;;;4895983;29;20058;-84
2021/07/01 04:40:57;;;;;;;5.93;2.03;;;14.40;96.50;;;;;;4915793;29;20128;-83
2021/07/01 04:43:25;;;;;;;6.68;2.05;;;14.30;96.50;;;;;;4885891;29;20488;-83
2021/07/01 04:46:09;;;;;;;6.65;2.10;;;14.30;96.30;;;;;;4916598;29;20388;-83
2021/07/01 04:48:34;;;;;;;5.18;2.00;;;14.20;96.30;;;;;;4899672;29;20035;-83
2021/07/01 04:51:17;;;;;;;8.27;2.20;;;14.20;96.40;;;;;;4899401;29;20028;-83
2021/07/01 04:53:47;;;;;;;8.10;3.03;;;14.10;96.30;;;;;;4901990;29;20055;-83
2021/07/01 04:56:13;;;;;;;5.10;2.15;;;14.20;96.40;;;;;;4921359;29;20032;-83
2021/07/01 04:58:39;;;;;;;6.18;2.40;;;14.20;96.60;;;;;;4908452;29;20527;-82
2021/07/01 05:01:04;;;;;;;6.05;2.00;;;14.20;96.50;;;;;;4922238;29;20149;-82
2021/07/01 05:03:30;;;;;;;4.93;2.00;;;14.20;96.50;;;;;;4917131;29;20490;-81
2021/07/01 05:05:56;;;;;;;4.90;1.80;;;14.10;96.50;;;;;;4922943;29;20024;-82
2021/07/01 05:08:21;;;;;;;4.45;1.58;;;14.20;96.70;;;;;;4916007;29;20032;-82
2021/07/01 05:10:50;;;;;;;6.50;2.10;;;14.10;96.60;;;;;;4915432;29;20047;-83
2021/07/01 05:13:16;;;;;;;6.75;2.10;;;14.10;96.60;;;;;;4899373;29;20155;-83
2021/07/01 05:15:48;;;;;;;5.70;1.90;;;14.00;96.70;;;;;;4899226;29;20111;-87
2021/07/01 05:18:14;;;;;;;6.00;2.05;;;14.20;96.80;;;;;;4899188;29;20111;-84
2021/07/01 05:21:12;;;;;;;8.27;2.30;;;14.10;96.80;;;;;;4899306;29;20052;-86
2021/07/01 05:27:21;;;;;;;8.35;2.53;;;14.20;97.00;;;;;;4916289;29;20042;-85
2021/07/01 05:30:18;;;;;;;8.35;2.53;;;14.10;97.00;;;;;;4933196;29;20050;-94
2021/07/01 05:33:23;;;;;;;8.88;2.65;;;14.10;97.00;;;;;;4898049;29;20062;-86
2021/07/01 05:39:28;;;;;;;8.88;3.22;;;14.30;97.40;;;;;;4913530;29;20108;-86
2021/07/01 05:41:58;;;;;;;8.75;2.70;;;14.40;97.50;;;;;;4884552;29;20028;-85
2021/07/01 05:44:38;;;;;;;10.27;2.80;;;14.50;97.60;;;;;;4899221;29;20381;-85
2021/07/01 05:47:04;;;;;;;9.27;2.90;;;14.50;97.50;;;;;;4901563;29;20035;-85
2021/07/01 05:49:32;;;;;;;8.65;2.50;;;14.60;97.50;;;;;;4915599;29;20028;-85
2021/07/01 05:52:02;;;;;;;7.38;1.90;;;14.80;97.70;;;;;;4899259;29;20024;-86
2021/07/01 05:54:38;;;;;;;8.02;2.95;;;14.90;97.60;;;;;;4915622;29;20433;-85
2021/07/01 05:57:05;;;;;;;9.00;3.10;;;14.90;97.30;;;;;;4917489;29;20047;-85
2021/07/01 06:09:47;;;;;;;10.32;3.05;;;15.10;97.10;;;;;;4901673;29;20056;-87
2021/07/01 06:12:13;;;;;;;10.95;3.45;;;15.00;97.00;;;;;;4901941;29;20059;-84
2021/07/01 06:14:39;;;;;;;9.88;2.90;;;15.00;97.10;;;;;;4915892;29;20036;-84
2021/07/01 06:17:07;;;;;;;10.05;3.00;;;15.00;97.30;;;;;;4901734;29;20459;-85
2021/07/01 06:20:32;;;;;;;;;;;;;;;;;;;;;
2021/07/01 06:23:44;;;;;;;10.65;3.28;;;15.00;97.20;;;;;;4918740;29;20032;-87
2021/07/01 06:30:09;;;;;;;13.85;3.83;;;15.00;97.20;;;;;;4919435;29;20377;-86
2021/07/01 06:32:54;;;;;;;;;;;;;;;;;;;;;
2021/07/01 06:39:45;;;;;;;10.05;2.83;;;15.00;97.40;;;;;;4897286;29;20083;-86
2021/07/01 06:42:19;;;;;;;10.55;3.67;;;15.00;97.40;;;;;;4920518;29;20040;-85
2021/07/01 06:44:50;;;;;;;13.60;3.53;;;15.00;97.40;;;;;;4902358;29;20042;-85
2021/07/01 06:47:17;;;;;;;12.15;4.03;;;15.00;97.60;;;;;;4919707;29;20024;-85
2021/07/01 06:49:45;;;;;;;14.98;4.38;;;15.00;97.50;;;;;;4918976;29;20032;-85
2021/07/01 06:52:13;;;;;;;13.15;4.50;;;15.10;97.50;;;;;;4918636;29;20038;-86
2021/07/01 06:55:14;;;;;;;15.85;4.65;;;15.20;97.50;;;;;;4902914;29;20036;-85
2021/07/01 06:58:49;;;;;;;;;;;;;;;;;;;;;
2021/07/01 07:01:31;;;;;;;18.00;5.43;;;15.10;97.40;;;;;;4927235;29;20453;-85
2021/07/01 07:03:58;;;;;;;15.70;4.78;;;15.10;97.40;;;;;;4931354;29;20016;-84
2021/07/01 07:06:26;;;;;;;20.20;6.80;;;15.20;97.60;;;;;;4901602;29;20065;-85
2021/07/01 07:08:52;;;;;;;19.25;5.53;;;15.20;97.40;;;;;;4915670;29;20051;-85
2021/07/01 07:11:18;;;;;;;24.60;7.00;;;15.10;97.50;;;;;;4901351;29;20044;-85
2021/07/01 07:13:44;;;;;;;29.35;7.90;;;15.10;97.50;;;;;;4892734;29;20066;-84
2021/07/01 07:16:13;;;;;;;27.17;8.73;;;15.20;97.70;;;;;;4918502;29;20403;-86
2021/07/01 07:18:42;;;;;;;33.50;9.25;;;15.30;97.70;;;;;;4933051;29;20029;-85
2021/07/01 07:21:15;;;;;;;37.17;10.45;;;15.30;97.70;;;;;;4898460;29;20086;-86
2021/07/01 07:24:26;;;;;;;26.83;8.95;;;15.30;97.80;;;;;;4918318;29;20035;-86
2021/07/01 07:29:54;;;;;;;35.85;9.93;;;15.50;97.80;;;;;;4896999;29;20051;-86
2021/07/01 07:32:26;;;;;;;34.70;11.40;;;15.40;97.50;;;;;;4901030;29;20472;-85
2021/07/01 07:34:57;;;;;;;40.75;12.93;;;15.40;97.50;;;;;;4918074;29;20099;-85
2021/07/01 07:37:28;;;;;;;49.33;12.95;;;15.50;97.80;;;;;;4917392;29;20477;-85
2021/07/01 07:39:54;;;;;;;40.13;12.02;;;15.60;97.80;;;;;;4901067;29;20476;-85
2021/07/01 07:42:21;;;;;;;35.42;11.35;;;15.70;98.00;;;;;;4900752;29;20028;-91
2021/07/01 07:45:07;;;;;;;28.08;9.20;;;15.80;98.00;;;;;;4900574;29;20035;-87
2021/07/01 07:47:33;;;;;;;37.78;12.45;;;16.00;98.10;;;;;;4934596;29;20087;-85
2021/07/01 07:49:59;;;;;;;49.08;11.98;;;16.20;98.30;;;;;;4902152;29;20425;-85
2021/07/01 07:52:25;;;;;;;39.45;10.27;;;16.40;98.40;;;;;;4905596;29;20024;-86
2021/07/01 07:54:58;;;;;;;37.95;11.38;;;16.70;98.70;;;;;;4900202;29;20114;-85
2021/07/01 07:57:29;;;;;;;22.48;8.60;;;17.00;98.70;;;;;;4916695;29;20082;-85
2021/07/01 08:00:02;;;;;;;18.13;6.43;;;17.30;98.90;;;;;;4914897;29;20440;-85
2021/07/01 08:02:59;;;;;;;44.70;10.77;;;17.60;98.80;;;;;;4916713;29;20035;-85
2021/07/01 08:05:29;;;;;;;19.15;6.13;;;17.80;98.10;;;;;;4916138;29;20539;-86
2021/07/01 08:07:56;;;;;;;19.67;5.85;;;17.80;97.90;;;;;;4916711;29;20028;-85
2021/07/01 08:10:30;;;;;;;27.08;8.02;;;17.70;97.40;;;;;;4916492;29;20044;-85
2021/07/01 08:13:07;;;;;;;25.52;8.57;;;17.60;97.40;;;;;;4899776;29;20374;-86
2021/07/01 08:15:39;;;;;;;24.90;7.80;;;17.50;97.10;;;;;;4912928;29;20024;-86
2021/07/01 08:18:08;;;;;;;20.60;7.45;;;17.40;97.30;;;;;;4931506;29;20388;-87
2021/07/01 08:20:35;;;;;;;20.27;7.25;;;17.30;97.40;;;;;;4899558;29;20115;-86
2021/07/01 08:23:01;;;;;;;18.80;6.60;;;17.30;97.50;;;;;;4900112;29;20032;-87
2021/07/01 08:25:30;;;;;;;14.93;6.28;;;17.30;97.70;;;;;;4916580;29;20017;-86
2021/07/01 08:27:57;;;;;;;17.30;6.00;;;17.60;98.60;;;;;;4923991;29;20091;-85
2021/07/01 08:30:26;;;;;;;15.27;5.55;;;17.70;98.10;;;;;;4902253;29;20099;-85
2021/07/01 08:33:00;;;;;;;12.02;4.57;;;17.80;98.10;;;;;;4900419;29;20032;-85
2021/07/01 08:35:28;;;;;;;15.43;5.05;;;17.80;98.00;;;;;;4917906;29;20115;-85
2021/07/01 08:37:57;;;;;;;20.42;5.68;;;17.90;98.10;;;;;;4903295;29;20020;-86
2021/07/01 08:40:33;;;;;;;11.10;4.50;;;18.10;98.10;;;;;;4916088;29;20047;-85
2021/07/01 08:43:00;;;;;;;10.68;4.32;;;18.30;98.40;;;;;;4929396;29;20028;-86
2021/07/01 08:46:01;;;;;;;11.98;3.80;;;18.60;98.60;;;;;;4916724;29;20016;-87
2021/07/01 08:48:40;;;;;;;14.02;5.00;;;18.90;98.90;;;;;;4899997;29;20016;-85
2021/07/01 08:51:09;;;;;;;9.68;4.00;;;19.10;98.20;;;;;;4915154;29;20033;-86
2021/07/01 08:53:57;;;;;;;10.05;4.15;;;19.20;98.30;;;;;;4915563;29;20131;-90
2021/07/01 08:56:28;;;;;;;7.90;3.55;;;19.50;98.80;;;;;;4914308;29;20560;-87
2021/07/01 08:58:59;;;;;;;8.13;3.40;;;19.70;98.60;;;;;;4899386;29;20473;-87
2021/07/01 09:01:27;;;;;;;7.45;3.15;;;19.70;98.10;;;;;;4897594;29;20032;-87
2021/07/01 09:03:58;;;;;;;7.97;3.30;;;19.40;96.60;;;;;;4921322;29;20058;-87
2021/07/01 09:06:26;;;;;;;9.48;3.63;;;19.10;96.80;;;;;;4902478;29;20024;-87
2021/07/01 09:08:55;;;;;;;11.20;3.80;;;18.70;96.70;;;;;;4916177;29;20520;-87
2021/07/01 09:11:25;;;;;;;9.98;4.28;;;18.60;97.20;;;;;;4916281;29;20051;-87
2021/07/01 09:13:51;;;;;;;10.85;4.18;;;18.70;98.00;;;;;;4899691;29;20032;-86
2021/07/01 09:16:18;;;;;;;9.68;3.92;;;18.90;98.30;;;;;;4916411;29;20112;-86
2021/07/01 09:18:46;;;;;;;6.38;3.45;;;19.30;99.10;;;;;;4918386;29;20028;-86
2021/07/01 09:21:14;;;;;;;9.52;4.10;;;19.70;99.10;;;;;;4922691;29;20031;-86
2021/07/01 09:23:46;;;;;;;7.60;3.50;;;20.00;99.20;;;;;;4919046;29;20020;-85
2021/07/01 09:26:20;;;;;;;7.40;3.17;;;20.40;99.40;;;;;;4900439;29;20134;-87
2021/07/01 09:28:48;;;;;;;7.43;3.17;;;20.70;98.90;;;;;;4916564;29;20362;-86
2021/07/01 09:31:18;;;;;;;6.40;3.10;;;20.80;98.50;;;;;;4916198;29;20035;-86
2021/07/01 09:33:46;;;;;;;8.18;3.30;;;20.90;98.60;;;;;;4900470;29;20043;-86
2021/07/01 09:36:14;;;;;;;4.15;2.22;;;21.10;98.40;;;;;;4916628;29;20021;-84
2021/07/01 09:38:45;;;;;;;6.70;3.00;;;21.00;97.80;;;;;;4916932;29;20028;-86
2021/07/01 09:41:12;;;;;;;5.55;2.75;;;21.00;97.70;;;;;;4916904;29;20016;-85
2021/07/01 09:43:44;;;;;;;5.63;2.67;;;21.00;97.80;;;;;;4916481;29;20044;-85
2021/07/01 09:46:15;;;;;;;6.28;3.10;;;21.00;98.00;;;;;;4899438;29;20063;-85
2021/07/01 09:48:46;;;;;;;4.45;2.53;;;21.00;97.60;;;;;;4905556;29;20028;-85
2021/07/01 09:51:13;;;;;;;6.07;3.00;;;21.00;98.20;;;;;;4916977;29;20107;-86
2021/07/01 09:53:40;;;;;;;6.88;3.10;;;21.00;97.80;;;;;;4919872;29;20143;-86
2021/07/01 09:56:12;;;;;;;5.80;2.90;;;21.10;98.30;;;;;;4918163;29;20050;-86
2021/07/01 09:58:46;;;;;;;6.45;2.95;;;21.00;97.60;;;;;;4919482;29;20032;-84
2021/07/01 10:01:26;;;;;;;5.65;3.00;;;20.80;96.80;;;;;;4920038;29;20020;-84
2021/07/01 10:03:58;;;;;;;6.50;3.15;;;20.50;97.20;;;;;;4919177;29;20032;-85
2021/07/01 10:06:24;;;;;;;6.10;3.05;;;20.40;97.40;;;;;;4918474;29;20032;-84
2021/07/01 10:08:52;;;;;;;4.60;2.42;;;20.60;98.30;;;;;;4915901;29;20020;-85
2021/07/01 10:11:37;;;;;;;8.30;3.10;;;20.90;98.90;;;;;;4919461;29;20044;-84
2021/07/01 10:14:16;;;;;;;7.72;2.80;;;21.20;98.80;;;;;;4902405;29;20485;-84
2021/07/01 10:16:44;;;;;;;5.70;2.63;;;21.30;98.50;;;;;;4919463;29;20033;-86
2021/07/01 10:19:18;;;;;;;7.07;2.88;;;21.30;97.90;;;;;;4919097;29;20028;-85
2021/07/01 10:21:44;;;;;;;4.78;2.30;;;21.30;97.70;;;;;;4919553;29;20020;-85
2021/07/01 10:24:25;;;;;;;5.82;2.90;;;21.30;98.10;;;;;;4933769;29;20543;-85
2021/07/01 10:26:52;;;;;;;3.53;2.17;;;21.40;98.40;;;;;;4914965;29;20031;-85
2021/07/01 10:29:19;;;;;;;4.97;2.60;;;21.50;98.10;;;;;;4934209;29;20432;-84
2021/07/01 10:31:58;;;;;;;6.10;2.65;;;21.60;98.20;;;;;;4919737;29;20031;-84
2021/07/01 10:34:28;;;;;;;5.15;2.40;;;21.50;97.20;;;;;;4901951;29;20040;-83
2021/07/01 10:37:17;;;;;;;4.63;2.35;;;21.30;97.30;;;;;;4917206;29;20028;-85
2021/07/01 10:39:43;;;;;;;4.88;2.40;;;21.00;97.00;;;;;;4902021;29;20084;-85
2021/07/01 10:42:09;;;;;;;4.05;2.13;;;20.60;96.80;;;;;;4902464;29;20114;-84
2021/07/01 10:44:37;;;;;;;2.28;1.80;;;20.40;97.20;;;;;;4902052;29;20046;-86
2021/07/01 10:47:30;;;;;;;5.10;2.40;;;20.20;97.00;;;;;;4918718;29;20115;-85
2021/07/01 10:49:58;;;;;;;5.28;2.50;;;19.80;96.80;;;;;;4917637;29;20029;-85
2021/07/01 10:52:37;;;;;;;4.07;2.40;;;19.60;97.40;;;;;;4918585;29;20024;-85
2021/07/01 10:55:04;;;;;;;4.03;1.83;;;19.40;97.00;;;;;;4917110;29;20480;-85
2021/07/01 10:57:30;;;;;;;3.75;2.03;;;19.10;96.70;;;;;;4918246;29;20465;-85
2021/07/01 10:59:58;;;;;;;4.85;2.00;;;18.70;96.20;;;;;;4901959;29;20028;-85
2021/07/01 11:02:30;;;;;;;6.43;1.95;;;18.30;96.00;;;;;;4917493;29;20104;-85
2021/07/01 11:05:01;;;;;;;6.40;2.30;;;18.00;96.30;;;;;;4918137;29;20035;-85
2021/07/01 11:07:27;;;;;;;8.35;2.35;;;17.80;96.80;;;;;;4917397;29;20020;-85
2021/07/01 11:09:56;;;;;;;7.55;2.67;;;17.90;97.70;;;;;;4901044;29;20039;-85
2021/07/01 11:12:25;;;;;;;7.78;2.63;;;18.40;98.90;;;;;;4900658;29;20028;-85
2021/07/01 11:14:54;;;;;;;4.90;2.15;;;18.70;98.90;;;;;;4917464;29;20032;-85
2021/07/01 11:17:35;;;;;;;7.68;2.50;;;18.90;97.90;;;;;;4917600;29;20020;-85
2021/07/01 11:20:24;;;;;;;5.05;2.45;;;18.80;97.50;;;;;;4914827;29;20024;-84
2021/07/01 11:22:51;;;;;;;3.22;2.00;;;18.90;97.70;;;;;;4901008;29;20577;-84
2021/07/01 11:25:38;;;;;;;3.97;1.70;;;18.80;97.50;;;;;;4917718;29;20102;-84
2021/07/01 11:28:22;;;;;;;4.15;1.90;;;18.60;97.00;;;;;;4917503;29;20525;-85
2021/07/01 11:30:49;;;;;;;8.15;2.33;;;18.50;97.50;;;;;;4900444;29;20028;-85
2021/07/01 11:33:17;;;;;;;5.47;2.22;;;18.40;96.90;;;;;;4920312;29;20054;-85
2021/07/01 11:35:43;;;;;;;5.13;2.20;;;18.60;97.90;;;;;;4900829;29;20083;-85
2021/07/01 11:38:29;;;;;;;5.78;2.30;;;18.90;98.60;;;;;;4917673;29;20035;-85
2021/07/01 11:41:00;;;;;;;4.72;2.00;;;19.50;99.40;;;;;;4930625;29;20028;-85
2021/07/01 11:43:27;;;;;;;4.53;2.20;;;19.80;99.10;;;;;;4918144;29;20024;-86
2021/07/01 11:45:54;;;;;;;3.72;1.90;;;20.20;98.70;;;;;;4917444;29;20098;-86
2021/07/01 11:48:22;;;;;;;4.75;2.20;;;20.50;98.80;;;;;;4917451;29;20107;-86
2021/07/01 11:50:50;;;;;;;4.28;2.22;;;20.70;98.20;;;;;;4917475;29;20055;-85
2021/07/01 11:53:18;;;;;;;4.93;2.50;;;20.90;98.20;;;;;;4917544;29;20036;-83
2021/07/01 11:55:49;;;;;;;3.65;2.15;;;21.30;99.10;;;;;;4918292;29;20036;-83
2021/07/01 11:58:16;;;;;;;4.68;2.30;;;21.70;99.20;;;;;;4922474;29;20087;-84
2021/07/01 12:00:43;;;;;;;5.90;2.50;;;22.00;99.20;;;;;;4936790;29;20043;-84
2021/07/01 12:03:10;;;;;;;4.57;2.10;;;22.10;98.10;;;;;;4901172;29;20118;-85
2021/07/01 12:05:41;;;;;;;5.70;2.50;;;22.00;97.60;;;;;;4900238;29;20029;-84
2021/07/01 12:08:08;;;;;;;5.93;2.40;;;21.60;96.00;;;;;;4900495;29;20024;-84
2021/07/01 12:10:34;;;;;;;6.40;2.38;;;21.10;96.00;;;;;;4900206;29;20051;-84
2021/07/01 12:13:00;;;;;;;5.07;2.20;;;20.70;96.30;;;;;;4916590;29;20483;-83
2021/07/01 12:15:27;;;;;;;4.72;3.00;;;20.40;96.80;;;;;;4903853;29;20123;-84
2021/07/01 12:18:02;;;;;;;6.00;2.75;;;20.10;96.80;;;;;;4900567;29;20055;-85
2021/07/01 12:20:36;;;;;;;5.13;2.47;;;19.80;97.00;;;;;;4918200;29;20079;-85
2021/07/01 12:23:12;;;;;;;4.32;1.83;;;19.70;97.40;;;;;;4919429;29;20111;-86
2021/07/01 12:25:37;;;;;;;6.47;2.90;;;19.60;97.70;;;;;;4919324;29;20032;-84
2021/07/01 12:28:09;;;;;;;5.57;2.78;;;19.50;97.60;;;;;;4906748;29;20376;-84
2021/07/01 12:31:05;;;;;;;7.32;3.15;;;19.30;97.80;;;;;;4931536;29;20091;-83
2021/07/01 12:33:56;;;;;;;6.22;3.00;;;19.20;97.50;;;;;;4915026;29;20130;-84
2021/07/01 12:36:28;;;;;;;8.68;3.20;;;19.00;97.60;;;;;;4898421;29;20035;-83
2021/07/01 12:39:10;;;;;;;7.57;3.42;;;19.00;98.10;;;;;;4916968;29;20025;-83
2021/07/01 12:41:40;;;;;;;7.07;3.28;;;19.10;98.20;;;;;;4924625;29;20806;-82
2021/07/01 12:44:06;;;;;;;7.57;3.03;;;19.30;98.80;;;;;;4906554;29;20085;-83
2021/07/01 12:46:42;;;;;;;6.03;3.00;;;19.50;99.10;;;;;;4923411;29;20016;-82
2021/07/01 12:49:21;;;;;;;6.80;3.13;;;19.70;98.70;;;;;;4922412;29;20024;-82
2021/07/01 12:51:57;;;;;;;7.93;3.63;;;19.50;97.80;;;;;;4923762;29;20024;-82
2021/07/01 12:54:24;;;;;;;7.20;3.10;;;19.30;97.60;;;;;;4920720;29;20043;-81
2021/07/01 12:56:51;;;;;;;5.88;2.90;;;19.10;97.50;;;;;;4903535;29;20024;-80
2021/07/01 12:59:17;;;;;;;8.30;2.75;;;18.90;97.40;;;;;;4920139;29;20016;-81
2021/07/01 13:01:44;;;;;;;8.55;3.20;;;18.60;97.40;;;;;;4935640;29;20111;-82
2021/07/01 13:04:09;;;;;;;7.70;3.28;;;18.50;97.50;;;;;;4903729;29;20020;-81
2021/07/01 13:06:41;;;;;;;6.78;3.00;;;18.30;97.70;;;;;;4917128;29;20102;-82
2021/07/01 13:09:07;;;;;;;8.63;3.25;;;18.20;97.90;;;;;;4917755;29;20090;-79
2021/07/01 13:11:45;;;;;;;8.85;3.53;;;18.20;98.20;;;;;;4920790;29;20059;-82
2021/07/01 13:14:17;;;;;;;8.93;3.42;;;18.20;98.20;;;;;;4922571;29;20027;-80
2021/07/01 13:17:02;;;;;;;8.68;3.20;;;18.30;98.40;;;;;;4922056;29;20126;-81
2021/07/01 13:19:28;;;;;;;7.55;3.30;;;18.40;98.60;;;;;;4894078;29;20119;-81
2021/07/01 13:22:00;;;;;;;7.35;3.40;;;18.50;98.80;;;;;;4903391;29;20036;-81
2021/07/01 13:24:27;;;;;;;9.02;3.42;;;18.70;98.90;;;;;;4902201;29;20031;-81
2021/07/01 13:26:56;;;;;;;6.22;2.83;;;18.90;99.00;;;;;;4923735;29;20047;-81
2021/07/01 13:29:34;;;;;;;8.50;3.85;;;19.10;99.10;;;;;;4939317;29;20024;-84
2021/07/01 13:32:05;;;;;;;8.55;3.35;;;19.60;99.50;;;;;;4923889;29;20477;-82
2021/07/01 13:34:31;;;;;;;8.05;3.50;;;20.10;99.90;;;;;;4924085;29;20043;-82
2021/07/01 13:37:29;;;;;;;7.25;2.90;;;20.50;99.90;;;;;;4923944;29;20025;-82
2021/07/01 13:39:57;;;;;;;7.65;3.28;;;21.30;99.90;;;;;;4922797;29;20047;-83
2021/07/01 13:42:23;;;;;;;11.60;4.43;;;21.40;98.90;;;;;;4922959;29;20024;-82
2021/07/01 13:45:12;;;;;;;12.93;4.22;;;21.10;96.70;;;;;;4921081;29;20055;-82
2021/07/01 13:47:44;;;;;;;10.70;3.85;;;20.50;96.10;;;;;;4919328;29;20127;-84
2021/07/01 13:50:48;;;;;;;9.13;3.80;;;20.00;96.60;;;;;;4923868;29;20506;-85
2021/07/01 13:53:19;;;;;;;7.32;3.60;;;19.70;97.00;;;;;;4908940;29;20499;-85
2021/07/01 13:55:56;;;;;;;8.57;4.07;;;19.40;97.30;;;;;;4923645;29;20594;-85
2021/07/01 13:58:24;;;;;;;9.98;4.15;;;19.10;97.30;;;;;;4924635;29;20021;-84
2021/07/01 14:00:55;;;;;;;15.07;5.97;;;19.00;97.30;;;;;;4906594;29;20081;-84
2021/07/01 14:03:22;;;;;;;13.55;5.35;;;18.80;97.30;;;;;;4923105;29;20055;-83
2021/07/01 14:05:52;;;;;;;10.82;4.38;;;18.60;97.50;;;;;;4923720;29;20024;-83
2021/07/01 14:08:28;;;;;;;12.07;4.78;;;18.50;97.80;;;;;;4922566;29;20028;-84
2021/07/01 14:11:15;;;;;;;10.80;4.93;;;18.50;98.20;;;;;;4917313;29;20040;-84
2021/07/01 14:13:43;;;;;;;15.75;7.07;;;18.70;98.80;;;;;;4918996;29;20467;-85
2021/07/01 14:16:11;;;;;;;12.60;5.40;;;19.40;99.90;;;;;;4919148;29;20048;-85
2021/07/01 14:18:40;;;;;;;21.02;9.35;;;20.20;99.90;;;;;;4919153;29;20040;-84
2021/07/01 14:21:08;;;;;;;8.63;4.55;;;20.40;99.90;;;;;;4919474;29;20063;-85
2021/07/01 14:23:35;;;;;;;18.48;7.50;;;20.60;99.10;;;;;;4902923;29;20076;-83
2021/07/01 14:26:18;;;;;;;14.48;5.95;;;20.70;98.60;;;;;;4919047;29;20380;-84
2021/07/01 14:28:46;;;;;;;27.38;9.00;;;20.80;98.30;;;;;;4933696;29;20032;-84
2021/07/01 14:31:17;;;;;;;11.95;4.47;;;20.90;98.00;;;;;;4915467;29;20028;-84
2021/07/01 14:33:57;;;;;;;10.90;4.05;;;20.90;98.00;;;;;;4919491;29;20036;-84
2021/07/01 14:36:28;;;;;;;12.65;3.90;;;21.00;98.00;;;;;;4924336;29;20028;-85
2021/07/01 14:38:57;;;;;;;7.70;2.75;;;21.00;97.80;;;;;;4920833;29;20484;-84
2021/07/01 14:41:33;;;;;;;18.00;5.25;;;21.00;97.60;;;;;;4919821;29;20042;-84
2021/07/01 14:44:20;;;;;;;13.77;4.63;;;21.00;97.90;;;;;;4918640;29;20024;-84
2021/07/01 14:46:47;;;;;;;10.32;3.92;;;21.10;98.20;;;;;;4918640;29;20016;-84
2021/07/01 14:49:21;;;;;;;8.98;3.67;;;21.20;98.20;;;;;;4908530;29;20404;-84
2021/07/01 14:51:52;;;;;;;13.00;4.70;;;21.20;97.70;;;;;;4919923;29;20028;-85
2021/07/01 14:54:22;;;;;;;13.13;3.78;;;21.10;97.30;;;;;;4920882;29;20387;-86
2021/07/01 14:57:02;;;;;;;7.90;2.70;;;20.90;97.00;;;;;;4919845;29;20532;-84
2021/07/01 15:00:00;;;;;;;10.50;3.55;;;20.60;96.80;;;;;;4902084;29;20100;-83
2021/07/01 15:02:35;;;;;;;7.65;2.55;;;20.30;96.90;;;;;;4906380;29;20024;-84
2021/07/01 15:05:11;;;;;;;7.20;2.58;;;19.90;96.70;;;;;;4918647;29;20024;-83
2021/07/01 15:08:13;;;;;;;3.53;1.40;;;19.70;97.00;;;;;;4902003;29;20483;-84
2021/07/01 15:10:41;;;;;;;19.23;4.93;;;19.40;96.90;;;;;;4910157;29;20048;-83
2021/07/01 15:13:08;;;;;;;13.25;4.88;;;19.20;97.10;;;;;;4933135;29;20032;-83
2021/07/01 15:15:41;;;;;;;10.50;3.63;;;19.10;97.60;;;;;;4934795;29;20485;-83
2021/07/01 15:18:07;;;;;;;12.82;3.88;;;19.00;97.70;;;;;;4918535;29;20024;-84
2021/07/01 15:20:34;;;;;;;13.10;3.63;;;19.10;97.90;;;;;;4886246;29;20508;-84
2021/07/01 15:23:01;;;;;;;9.65;3.40;;;19.00;98.30;;;;;;4900700;29;20043;-85
2021/07/01 15:25:27;;;;;;;14.80;4.72;;;19.20;98.30;;;;;;4916309;29;21836;-85
2021/07/01 15:27:53;;;;;;;9.68;4.03;;;19.20;98.00;;;;;;4900462;29;20485;-83
2021/07/01 15:30:19;;;;;;;8.68;3.08;;;19.20;97.80;;;;;;4916380;29;20025;-86
2021/07/01 15:32:46;;;;;;;5.47;2.42;;;19.10;97.80;;;;;;4917208;29;20020;-85
2021/07/01 15:35:13;;;;;;;8.25;2.97;;;19.10;97.70;;;;;;4900748;29;20040;-85
2021/07/01 15:37:39;;;;;;;7.80;2.55;;;18.90;97.50;;;;;;4917372;29;20027;-85
2021/07/01 15:40:11;;;;;;;9.30;3.03;;;18.80;97.70;;;;;;4917448;29;20024;-84
2021/07/01 15:42:39;;;;;;;7.47;2.78;;;18.70;97.60;;;;;;4917514;29;20017;-85
2021/07/01 15:45:06;;;;;;;10.13;3.70;;;18.50;97.70;;;;;;4917375;29;20094;-85
2021/07/01 15:47:32;;;;;;;11.35;3.95;;;18.40;97.50;;;;;;4917184;29;20384;-83
2021/07/01 15:49:58;;;;;;;10.75;4.28;;;18.20;97.50;;;;;;4900839;29;20029;-83
2021/07/01 15:52:25;;;;;;;8.02;3.88;;;18.20;97.60;;;;;;4917520;29;20039;-83
2021/07/01 15:54:51;;;;;;;11.40;3.97;;;18.00;97.80;;;;;;4917354;29;20036;-84
2021/07/01 15:57:18;;;;;;;10.13;3.83;;;18.00;97.90;;;;;;4908347;29;20028;-83
2021/07/01 15:59:44;;;;;;;9.93;4.07;;;18.00;97.90;;;;;;4915944;29;20032;-82
2021/07/01 16:02:10;;;;;;;9.52;4.00;;;17.90;98.00;;;;;;4916391;29;20080;-83
2021/07/01 16:04:38;;;;;;;13.80;4.78;;;17.90;98.00;;;;;;4917208;29;20028;-83
2021/07/01 16:07:05;;;;;;;15.55;4.35;;;17.90;98.00;;;;;;4917417;29;20044;-83
2021/07/01 16:09:40;;;;;;;10.75;3.05;;;17.90;97.90;;;;;;5074926;28;20409;-84
2021/07/01 16:12:08;;;;;;;11.07;3.08;;;17.70;97.90;;;;;;5071210;28;20043;-91
2021/07/01 16:17:58;;;;;;;12.30;3.63;;;17.60;97.80;;;;;;5069419;28;20028;-83
2021/07/01 16:20:31;;;;;;;4.68;2.00;;;17.60;97.90;;;;;;5071545;28;20407;-83
2021/07/01 16:23:00;;;;;;;6.90;2.55;;;17.50;97.90;;;;;;5068338;28;20369;-83
2021/07/01 16:25:28;;;;;;;14.55;4.20;;;17.30;97.60;;;;;;5063900;28;20484;-82
2021/07/01 16:27:56;;;;;;;6.38;2.63;;;17.30;97.80;;;;;;5062602;28;20576;-82
2021/07/01 16:30:22;;;;;;;8.43;2.35;;;17.20;98.00;;;;;;5064516;28;20055;-82
2021/07/01 16:32:49;;;;;;;8.18;2.63;;;17.20;98.10;;;;;;5070847;28;20021;-82
2021/07/01 16:35:16;;;;;;;10.27;3.15;;;17.30;98.20;;;;;;5069403;28;20030;-82
2021/07/01 16:37:43;;;;;;;6.72;2.72;;;17.30;98.30;;;;;;5069204;28;20043;-82
2021/07/01 16:40:11;;;;;;;11.15;3.33;;;17.30;98.30;;;;;;5070574;28;20029;-82
2021/07/01 16:42:37;;;;;;;7.85;2.92;;;17.30;98.20;;;;;;5070541;28;20024;-82
2021/07/01 16:45:05;;;;;;;6.63;2.53;;;17.30;98.30;;;;;;5069484;28;20029;-82
2021/07/01 16:47:34;;;;;;;5.88;2.60;;;17.40;98.30;;;;;;5052397;28;20044;-82
2021/07/01 16:50:10;;;;;;;7.07;2.80;;;17.30;98.20;;;;;;5070539;28;20067;-82
2021/07/01 16:52:44;;;;;;;11.20;3.13;;;17.30;98.30;;;;;;5070349;28;20017;-82
2021/07/01 16:55:10;;;;;;;8.90;3.20;;;17.30;98.20;;;;;;5071938;28;20024;-82
2021/07/01 16:57:40;;;;;;;10.15;3.30;;;17.30;98.10;;;;;;5069208;28;20086;-82
2021/07/01 17:00:09;;;;;;;9.20;3.05;;;17.30;98.20;;;;;;5070198;28;20008;-82
2021/07/01 17:02:36;;;;;;;11.32;3.78;;;17.30;98.20;;;;;;5070722;28;20023;-82
2021/07/01 17:05:02;;;;;;;8.25;3.33;;;17.20;98.10;;;;;;5070025;28;20571;-82
2021/07/01 17:07:27;;;;;;;10.05;2.92;;;17.10;98.10;;;;;;5076773;28;20111;-82
2021/07/01 17:09:58;;;;;;;9.60;3.33;;;17.10;98.20;;;;;;5070067;28;20108;-82
2021/07/01 17:12:28;;;;;;;8.18;3.33;;;17.10;98.20;;;;;;5069310;28;20033;-82
2021/07/01 17:14:57;;;;;;;10.55;3.22;;;17.10;98.20;;;;;;5075521;28;20017;-82
2021/07/01 17:17:24;;;;;;;11.13;3.40;;;17.10;98.30;;;;;;5073080;28;20063;-82
2021/07/01 17:19:55;;;;;;;6.80;3.03;;;17.20;98.50;;;;;;5063163;28;20025;-82